createdAt,value
2023-03-06T00:00:44.455Z,29.52
2023-03-06T00:05:47.612Z,28.63
2023-03-06T00:10:50.146Z,30.20
2023-03-06T00:15:53.046Z,30.33
2023-03-06T00:20:55.632Z,31.10
2023-03-06T00:25:58.176Z,33.35
2023-03-06T00:31:01.324Z,37.20
2023-03-06T00:36:06.075Z,37.58
2023-03-06T00:41:13.134Z,36.58
2023-03-06T00:46:15.575Z,34.05
2023-03-06T00:51:19.942Z,40.17
2023-03-06T00:56:22.539Z,41.43
2023-03-06T01:01:25.053Z,38.47
2023-03-06T01:06:28.562Z,36.67
2023-03-06T01:11:31.433Z,41.28
2023-03-06T01:16:34.122Z,45.67
2023-03-06T01:21:36.619Z,39.97
2023-03-06T01:26:39.176Z,41.40
2023-03-06T01:31:41.739Z,41.03
2023-03-06T01:36:44.396Z,37.58
2023-03-06T01:41:46.925Z,40.50
2023-03-06T01:46:49.464Z,41.03
2023-03-06T01:51:54.773Z,40.42
2023-03-06T01:57:25.533Z,44.90
2023-03-06T02:02:28.261Z,38.67
2023-03-06T02:07:31.707Z,40.08
2023-03-06T02:12:34.291Z,40.77
2023-03-06T02:17:37.425Z,40.63
2023-03-06T02:22:49.169Z,39.47
2023-03-06T02:27:52.715Z,42.08
2023-03-06T02:32:55.979Z,40.22
2023-03-06T02:38:03.158Z,42.70
2023-03-06T02:43:05.965Z,46.20
2023-03-06T02:48:09.672Z,41.92
2023-03-06T02:53:14.142Z,47.17
2023-03-06T02:58:19.900Z,45.72
2023-03-06T03:03:23.389Z,42.40
2023-03-06T03:08:28.552Z,45.53
2023-03-06T03:13:35.681Z,47.95
2023-03-06T03:18:38.641Z,45.92
2023-03-06T03:23:41.836Z,51.17
2023-03-06T05:16:17.422Z,61.22
2023-03-06T05:21:20.416Z,61.53
2023-03-06T05:26:22.975Z,54.25
2023-03-06T05:31:25.479Z,50.72
2023-03-06T05:36:28.104Z,48.83
2023-03-06T05:41:30.967Z,50.25
2023-03-06T05:46:33.427Z,50.17
2023-03-06T05:51:36.581Z,46.28
2023-03-06T05:56:40.269Z,44.90
2023-03-06T06:01:46.490Z,46.67
2023-03-06T06:06:56.283Z,47.45
2023-03-06T06:12:01.914Z,41.30
2023-03-06T06:17:04.863Z,42.55
2023-03-06T06:22:07.290Z,48.70
2023-03-06T06:27:09.745Z,48.78
2023-03-06T06:32:12.248Z,43.42
2023-03-06T06:37:14.738Z,40.50
2023-03-06T06:42:38.894Z,40.70
2023-03-06T06:47:43.703Z,43.42
2023-03-06T06:52:46.544Z,39.55
2023-03-06T06:57:48.921Z,44.90
2023-03-06T07:02:51.556Z,40.73
2023-03-06T07:07:54.040Z,36.28
2023-03-06T07:12:56.873Z,45.10
2023-03-06T07:18:01.004Z,44.20
2023-03-06T07:23:03.519Z,45.20
2023-03-06T07:28:06.281Z,50.40
2023-03-06T07:33:09.337Z,56.30
2023-03-06T07:38:12.178Z,45.97
2023-03-06T07:43:19.496Z,48.65
2023-03-06T07:48:29.609Z,50.08
2023-03-06T07:53:32.900Z,40.97
2023-03-06T07:58:41.342Z,44.03
2023-03-06T08:03:44.272Z,45.65
2023-03-06T08:08:48.408Z,43.30
2023-03-06T08:13:53.070Z,46.25
2023-03-06T08:18:56.449Z,41.37
2023-03-06T08:23:59.462Z,38.83
2023-03-06T08:29:02.791Z,45.78
2023-03-06T08:34:12.966Z,39.38
2023-03-06T08:39:15.505Z,41.50
2023-03-06T08:44:18.076Z,34.67
2023-03-06T08:49:20.733Z,37.95
2023-03-06T08:54:23.223Z,42.20
2023-03-06T08:59:25.757Z,40.07
2023-03-06T09:04:31.354Z,34.70
2023-03-06T09:09:33.872Z,45.13
2023-03-06T09:14:36.284Z,56.28
2023-03-06T09:19:38.855Z,50.00
2023-03-06T09:24:41.387Z,43.97
2023-03-06T09:29:43.882Z,47.72
2023-03-06T09:34:46.336Z,40.33
2023-03-06T09:39:50.321Z,41.30
2023-03-06T09:45:04.279Z,37.60
2023-03-06T09:50:25.354Z,35.70
2023-03-06T09:55:33.000Z,32.97
2023-03-06T10:00:58.390Z,28.87
2023-03-06T10:06:30.469Z,25.02
2023-03-06T10:11:43.832Z,29.02
2023-03-06T10:16:46.547Z,22.40
2023-03-06T10:22:04.316Z,22.55
2023-03-06T10:27:17.073Z,19.20
2023-03-06T10:32:46.097Z,24.48
2023-03-06T10:37:50.424Z,16.83
2023-03-06T10:43:09.390Z,26.15
2023-03-06T10:48:20.343Z,19.42
2023-03-06T10:53:29.442Z,21.37
2023-03-06T10:58:33.576Z,20.55
2023-03-06T11:03:37.181Z,21.70
2023-03-06T11:08:41.149Z,17.63
2023-03-06T11:13:44.751Z,16.60
2023-03-06T11:19:18.028Z,19.40
2023-03-06T11:24:22.797Z,15.38
2023-03-06T11:29:43.613Z,17.95
2023-03-06T11:35:14.140Z,16.93
2023-03-06T11:41:00.140Z,21.05
2023-03-06T11:46:37.199Z,18.87
2023-03-06T11:51:48.442Z,16.58
2023-03-06T11:57:12.990Z,17.40
2023-03-06T12:02:37.950Z,17.52
2023-03-06T12:07:48.799Z,17.25
2023-03-06T12:13:00.568Z,15.07
2023-03-06T12:18:12.253Z,12.05
2023-03-06T12:23:23.654Z,14.63
2023-03-06T12:28:47.338Z,11.80
2023-03-06T12:33:55.712Z,12.02
2023-03-06T12:39:12.966Z,10.43
2023-03-06T12:44:24.173Z,8.07
2023-03-06T12:49:32.980Z,14.52
2023-03-06T12:54:42.022Z,12.68
2023-03-06T12:59:48.876Z,10.25
2023-03-06T13:05:13.053Z,10.57
2023-03-06T13:10:34.888Z,9.90
2023-03-06T13:15:42.852Z,8.70
2023-03-06T13:20:46.370Z,7.85
2023-03-06T13:25:50.540Z,6.50
2023-03-06T13:30:53.450Z,8.70
2023-03-06T13:35:56.964Z,6.68
2023-03-06T13:41:21.147Z,9.55
2023-03-06T13:46:35.657Z,9.85
2023-03-06T13:51:41.176Z,7.75
2023-03-06T13:57:04.322Z,7.37
2023-03-06T14:02:28.592Z,7.93
2023-03-06T14:07:40.377Z,8.55
2023-03-06T14:13:13.341Z,9.57
2023-03-06T14:18:42.700Z,16.20
2023-03-06T14:23:47.451Z,10.47
2023-03-06T14:28:53.034Z,7.80
2023-03-06T14:34:01.286Z,10.25
2023-03-06T14:39:14.123Z,10.38
2023-03-06T14:44:18.368Z,10.60
2023-03-06T14:49:22.590Z,10.83
2023-03-06T14:54:29.772Z,11.10
2023-03-06T14:59:56.614Z,11.40
2023-03-06T15:05:05.732Z,14.05
2023-03-06T15:10:21.666Z,18.63
2023-03-06T15:15:30.750Z,10.47
2023-03-06T15:20:54.076Z,6.97
2023-03-06T15:26:02.361Z,5.70
2023-03-06T15:31:11.049Z,6.85
2023-03-06T15:36:27.947Z,8.52
2023-03-06T15:41:39.025Z,9.00
2023-03-06T15:46:42.354Z,6.95
2023-03-06T15:51:45.028Z,5.25
2023-03-06T15:56:49.943Z,5.50
2023-03-06T16:01:53.366Z,7.15
2023-03-06T16:06:55.982Z,5.30
2023-03-06T16:11:59.710Z,7.75
2023-03-06T16:17:02.321Z,7.35
2023-03-06T16:22:04.799Z,9.70
2023-03-06T16:27:07.385Z,7.13
2023-03-06T16:32:11.882Z,10.00
2023-03-06T16:37:14.521Z,7.00
2023-03-06T16:42:17.898Z,8.20
2023-03-06T16:47:20.390Z,10.63
2023-03-06T16:52:22.950Z,9.55
2023-03-06T16:57:25.624Z,6.07
2023-03-06T17:02:28.108Z,6.93
2023-03-06T17:07:33.325Z,9.55
2023-03-06T17:12:36.250Z,10.23
2023-03-06T17:17:39.100Z,9.85
2023-03-06T17:22:46.487Z,11.32
2023-03-06T17:27:49.148Z,10.75
2023-03-06T17:32:51.661Z,12.13
2023-03-06T17:37:59.013Z,9.33
2023-03-06T17:43:01.637Z,8.45
2023-03-06T17:48:04.345Z,7.97
2023-03-06T17:53:06.938Z,11.18
2023-03-06T17:58:12.091Z,11.20
2023-03-06T18:03:15.031Z,12.83
2023-03-06T18:08:17.489Z,8.38
2023-03-06T18:13:20.354Z,7.90
2023-03-06T18:18:23.655Z,9.15
2023-03-06T18:23:27.032Z,8.52
2023-03-06T18:28:31.020Z,7.20
2023-03-06T18:33:33.617Z,10.05
2023-03-06T18:38:36.146Z,8.43
2023-03-06T18:43:39.319Z,7.25
2023-03-06T18:48:41.841Z,9.57
2023-03-06T18:53:44.591Z,9.97
2023-03-06T18:58:48.520Z,5.63
2023-03-06T19:03:51.065Z,7.32
2023-03-06T19:08:58.931Z,7.03
2023-03-06T19:14:01.934Z,9.23
2023-03-06T19:19:04.485Z,6.43
2023-03-06T19:24:13.406Z,3.45
2023-03-06T19:29:15.924Z,7.20
2023-03-06T19:34:19.060Z,4.95
2023-03-06T19:39:21.604Z,5.00
2023-03-06T19:44:27.201Z,7.53
2023-03-06T19:49:30.432Z,4.75
2023-03-06T19:54:33.264Z,4.13
2023-03-06T19:59:36.007Z,3.42
2023-03-06T20:04:38.827Z,4.88
2023-03-06T20:09:41.409Z,3.47
2023-03-06T20:14:46.296Z,3.55
2023-03-06T20:19:48.783Z,3.97
2023-03-06T20:24:51.369Z,6.40
2023-03-06T20:29:53.968Z,3.25
2023-03-06T20:34:56.448Z,11.27
2023-03-06T20:39:59.082Z,7.15
2023-03-06T20:45:01.599Z,4.47
2023-03-06T20:50:06.433Z,4.15
2023-03-06T20:55:09.467Z,5.47
2023-03-06T21:00:12.424Z,3.90
2023-03-06T21:05:15.034Z,6.35
2023-03-06T21:10:17.703Z,5.38
2023-03-06T21:15:22.783Z,4.07
2023-03-06T21:20:25.220Z,5.70
2023-03-06T21:25:29.136Z,4.47
2023-03-06T21:30:32.890Z,5.82
2023-03-06T21:35:40.916Z,11.05
2023-03-06T21:40:44.916Z,6.63
2023-03-06T21:45:49.344Z,4.47
2023-03-06T21:50:51.991Z,5.73
2023-03-06T22:01:27.186Z,5.50
2023-03-06T22:06:32.036Z,4.63
2023-03-06T22:11:37.519Z,5.13
2023-03-06T22:16:40.129Z,5.10
2023-03-06T22:21:42.957Z,6.25
2023-03-06T22:26:45.469Z,6.45
2023-03-06T22:31:47.958Z,5.90
2023-03-06T22:36:50.748Z,7.00
2023-03-06T22:41:56.256Z,4.67
2023-03-06T22:46:58.690Z,6.32
2023-03-06T22:52:01.179Z,7.90
2023-03-06T22:57:04.602Z,5.00
2023-03-06T23:02:08.347Z,3.67
2023-03-06T23:07:10.957Z,5.80
2023-03-06T23:12:13.444Z,6.43
2023-03-06T23:17:35.036Z,7.00
2023-03-06T23:22:55.893Z,9.98
2023-03-06T23:28:16.763Z,7.15
2023-03-06T23:33:19.528Z,8.03
2023-03-06T23:38:21.913Z,6.13
2023-03-06T23:43:24.445Z,7.78
2023-03-06T23:48:29.797Z,6.40
2023-03-06T23:53:32.259Z,7.38
2023-03-06T23:58:35.566Z,7.57
